sensor_id;sensor_type;location;lat;lon;timestamp;P1;durP1;ratioP1;P2;durP2;ratioP2
41077;SDS011;26823;42.662;23.352;2023-08-20T00:02:02;8.13;;;5.50;;
41077;SDS011;26823;42.662;23.352;2023-08-20T00:04:32;7.85;;;5.70;;
41077;SDS011;26823;42.662;23.352;2023-08-20T00:07:07;8.25;;;6.15;;
41077;SDS011;26823;42.662;23.352;2023-08-20T00:09:33;9.07;;;5.72;;
41077;SDS011;26823;42.662;23.352;2023-08-20T00:11:58;8.88;;;5.80;;
41077;SDS011;26823;42.662;23.352;2023-08-20T00:14:51;8.50;;;6.20;;
41077;SDS011;26823;42.662;23.352;2023-08-20T00:17:23;7.18;;;5.93;;
41077;SDS011;26823;42.662;23.352;2023-08-20T00:19:52;6.63;;;5.93;;
41077;SDS011;26823;42.662;23.352;2023-08-20T00:22:18;6.75;;;5.97;;
41077;SDS011;26823;42.662;23.352;2023-08-20T00:24:46;8.00;;;5.93;;
41077;SDS011;26823;42.662;23.352;2023-08-20T00:27:11;7.85;;;5.93;;
41077;SDS011;26823;42.662;23.352;2023-08-20T00:29:37;8.02;;;6.13;;
41077;SDS011;26823;42.662;23.352;2023-08-20T00:32:03;9.25;;;6.30;;
41077;SDS011;26823;42.662;23.352;2023-08-20T00:34:28;6.60;;;5.97;;
41077;SDS011;26823;42.662;23.352;2023-08-20T00:36:53;7.45;;;6.13;;
41077;SDS011;26823;42.662;23.352;2023-08-20T00:39:19;8.32;;;6.68;;
41077;SDS011;26823;42.662;23.352;2023-08-20T00:41:44;8.32;;;6.30;;
41077;SDS011;26823;42.662;23.352;2023-08-20T00:44:10;8.60;;;6.55;;
41077;SDS011;26823;42.662;23.352;2023-08-20T00:46:35;8.05;;;6.50;;
41077;SDS011;26823;42.662;23.352;2023-08-20T00:49:01;8.05;;;6.25;;
41077;SDS011;26823;42.662;23.352;2023-08-20T00:51:26;6.45;;;5.85;;
41077;SDS011;26823;42.662;23.352;2023-08-20T00:53:53;8.05;;;6.10;;
41077;SDS011;26823;42.662;23.352;2023-08-20T00:56:19;7.43;;;6.43;;
41077;SDS011;26823;42.662;23.352;2023-08-20T00:58:44;7.97;;;7.00;;
41077;SDS011;26823;42.662;23.352;2023-08-20T01:01:10;8.07;;;6.43;;
41077;SDS011;26823;42.662;23.352;2023-08-20T01:03:35;8.20;;;7.05;;
41077;SDS011;26823;42.662;23.352;2023-08-20T01:08:50;32.15;;;22.17;;
41077;SDS011;26823;42.662;23.352;2023-08-20T01:11:24;37.72;;;27.00;;
41077;SDS011;26823;42.662;23.352;2023-08-20T01:13:55;35.03;;;23.77;;
41077;SDS011;26823;42.662;23.352;2023-08-20T01:16:20;24.70;;;16.70;;
41077;SDS011;26823;42.662;23.352;2023-08-20T01:18:47;18.65;;;14.80;;
41077;SDS011;26823;42.662;23.352;2023-08-20T01:21:56;27.45;;;16.15;;
41077;SDS011;26823;42.662;23.352;2023-08-20T01:29:43;12.02;;;8.25;;
41077;SDS011;26823;42.662;23.352;2023-08-20T01:32:09;10.65;;;8.38;;
41077;SDS011;26823;42.662;23.352;2023-08-20T01:34:36;10.80;;;7.93;;
41077;SDS011;26823;42.662;23.352;2023-08-20T01:37:02;8.35;;;7.55;;
41077;SDS011;26823;42.662;23.352;2023-08-20T01:39:27;11.32;;;8.20;;
41077;SDS011;26823;42.662;23.352;2023-08-20T01:41:52;10.13;;;8.27;;
41077;SDS011;26823;42.662;23.352;2023-08-20T01:44:18;9.02;;;8.07;;
41077;SDS011;26823;42.662;23.352;2023-08-20T01:46:43;8.95;;;7.50;;
41077;SDS011;26823;42.662;23.352;2023-08-20T01:49:08;9.57;;;8.52;;
41077;SDS011;26823;42.662;23.352;2023-08-20T01:51:34;8.32;;;7.53;;
41077;SDS011;26823;42.662;23.352;2023-08-20T01:54:01;10.18;;;7.05;;
41077;SDS011;26823;42.662;23.352;2023-08-20T01:56:27;12.43;;;6.95;;
41077;SDS011;26823;42.662;23.352;2023-08-20T01:58:52;10.18;;;7.93;;
41077;SDS011;26823;42.662;23.352;2023-08-20T02:01:18;12.63;;;7.85;;
41077;SDS011;26823;42.662;23.352;2023-08-20T02:03:43;10.18;;;7.38;;
41077;SDS011;26823;42.662;23.352;2023-08-20T02:06:08;8.93;;;8.02;;
41077;SDS011;26823;42.662;23.352;2023-08-20T02:08:34;12.20;;;7.22;;
41077;SDS011;26823;42.662;23.352;2023-08-20T02:11:02;8.40;;;7.20;;
41077;SDS011;26823;42.662;23.352;2023-08-20T02:13:29;10.02;;;7.43;;
41077;SDS011;26823;42.662;23.352;2023-08-20T02:15:58;9.23;;;7.82;;
41077;SDS011;26823;42.662;23.352;2023-08-20T02:18:27;10.63;;;7.80;;
41077;SDS011;26823;42.662;23.352;2023-08-20T02:20:53;10.32;;;9.27;;
41077;SDS011;26823;42.662;23.352;2023-08-20T02:23:19;13.13;;;7.95;;
41077;SDS011;26823;42.662;23.352;2023-08-20T02:25:44;10.05;;;8.13;;
41077;SDS011;26823;42.662;23.352;2023-08-20T02:28:09;12.35;;;8.25;;
41077;SDS011;26823;42.662;23.352;2023-08-20T02:30:41;8.07;;;7.28;;
41077;SDS011;26823;42.662;23.352;2023-08-20T02:33:08;10.50;;;8.07;;
41077;SDS011;26823;42.662;23.352;2023-08-20T02:35:35;10.43;;;7.57;;
41077;SDS011;26823;42.662;23.352;2023-08-20T02:38:00;12.07;;;8.20;;
41077;SDS011;26823;42.662;23.352;2023-08-20T02:40:26;9.00;;;7.55;;
41077;SDS011;26823;42.662;23.352;2023-08-20T02:42:51;11.95;;;7.20;;
41077;SDS011;26823;42.662;23.352;2023-08-20T02:45:17;10.48;;;8.35;;
41077;SDS011;26823;42.662;23.352;2023-08-20T02:47:42;10.10;;;7.68;;
41077;SDS011;26823;42.662;23.352;2023-08-20T02:50:07;9.45;;;7.68;;
41077;SDS011;26823;42.662;23.352;2023-08-20T02:52:33;8.82;;;7.97;;
41077;SDS011;26823;42.662;23.352;2023-08-20T02:54:58;9.50;;;8.35;;
41077;SDS011;26823;42.662;23.352;2023-08-20T02:57:24;8.80;;;7.45;;
41077;SDS011;26823;42.662;23.352;2023-08-20T02:59:50;12.90;;;8.13;;
41077;SDS011;26823;42.662;23.352;2023-08-20T03:02:15;8.40;;;7.30;;
41077;SDS011;26823;42.662;23.352;2023-08-20T03:04:41;7.53;;;6.80;;
41077;SDS011;26823;42.662;23.352;2023-08-20T03:07:06;10.52;;;7.65;;
41077;SDS011;26823;42.662;23.352;2023-08-20T03:09:31;8.98;;;7.80;;
41077;SDS011;26823;42.662;23.352;2023-08-20T03:11:57;8.63;;;6.95;;
41077;SDS011;26823;42.662;23.352;2023-08-20T03:14:28;9.38;;;8.43;;
41077;SDS011;26823;42.662;23.352;2023-08-20T03:16:53;13.90;;;8.07;;
41077;SDS011;26823;42.662;23.352;2023-08-20T03:19:19;8.90;;;7.50;;
41077;SDS011;26823;42.662;23.352;2023-08-20T03:21:44;9.63;;;8.13;;
41077;SDS011;26823;42.662;23.352;2023-08-20T03:24:09;9.23;;;7.18;;
41077;SDS011;26823;42.662;23.352;2023-08-20T03:26:35;11.10;;;7.35;;
41077;SDS011;26823;42.662;23.352;2023-08-20T03:29:00;8.05;;;7.15;;
41077;SDS011;26823;42.662;23.352;2023-08-20T03:31:25;9.80;;;7.45;;
41077;SDS011;26823;42.662;23.352;2023-08-20T03:33:51;7.95;;;7.22;;
41077;SDS011;26823;42.662;23.352;2023-08-20T03:36:16;8.95;;;7.47;;
41077;SDS011;26823;42.662;23.352;2023-08-20T03:38:41;8.98;;;8.07;;
41077;SDS011;26823;42.662;23.352;2023-08-20T03:41:07;11.57;;;7.85;;
41077;SDS011;26823;42.662;23.352;2023-08-20T03:43:32;10.50;;;7.82;;
41077;SDS011;26823;42.662;23.352;2023-08-20T03:45:58;8.73;;;7.43;;
41077;SDS011;26823;42.662;23.352;2023-08-20T03:48:23;8.05;;;7.25;;
41077;SDS011;26823;42.662;23.352;2023-08-20T03:50:49;10.20;;;7.53;;
41077;SDS011;26823;42.662;23.352;2023-08-20T03:53:14;9.55;;;7.60;;
41077;SDS011;26823;42.662;23.352;2023-08-20T03:55:40;12.43;;;7.75;;
41077;SDS011;26823;42.662;23.352;2023-08-20T03:58:05;9.23;;;8.23;;
41077;SDS011;26823;42.662;23.352;2023-08-20T04:00:31;9.63;;;8.55;;
41077;SDS011;26823;42.662;23.352;2023-08-20T04:02:56;10.45;;;8.05;;
41077;SDS011;26823;42.662;23.352;2023-08-20T04:05:21;13.18;;;7.55;;
41077;SDS011;26823;42.662;23.352;2023-08-20T04:07:47;11.07;;;7.63;;
41077;SDS011;26823;42.662;23.352;2023-08-20T04:10:12;10.75;;;8.05;;
41077;SDS011;26823;42.662;23.352;2023-08-20T04:12:38;9.57;;;7.72;;
41077;SDS011;26823;42.662;23.352;2023-08-20T04:15:03;11.23;;;7.80;;
41077;SDS011;26823;42.662;23.352;2023-08-20T04:17:29;10.20;;;7.90;;
41077;SDS011;26823;42.662;23.352;2023-08-20T04:19:54;10.10;;;7.55;;
41077;SDS011;26823;42.662;23.352;2023-08-20T04:22:20;11.55;;;8.93;;
41077;SDS011;26823;42.662;23.352;2023-08-20T04:24:45;11.40;;;8.48;;
41077;SDS011;26823;42.662;23.352;2023-08-20T04:27:10;8.50;;;7.47;;
41077;SDS011;26823;42.662;23.352;2023-08-20T04:29:36;10.68;;;8.60;;
41077;SDS011;26823;42.662;23.352;2023-08-20T04:32:01;11.15;;;7.88;;
41077;SDS011;26823;42.662;23.352;2023-08-20T04:34:26;15.27;;;7.95;;
41077;SDS011;26823;42.662;23.352;2023-08-20T04:36:52;9.90;;;8.13;;
41077;SDS011;26823;42.662;23.352;2023-08-20T04:39:18;10.60;;;7.80;;
41077;SDS011;26823;42.662;23.352;2023-08-20T04:41:43;8.80;;;7.80;;
41077;SDS011;26823;42.662;23.352;2023-08-20T04:44:09;11.93;;;7.85;;
41077;SDS011;26823;42.662;23.352;2023-08-20T04:46:34;9.48;;;7.03;;
41077;SDS011;26823;42.662;23.352;2023-08-20T04:49:00;10.88;;;7.80;;
41077;SDS011;26823;42.662;23.352;2023-08-20T04:51:25;8.25;;;7.43;;
41077;SDS011;26823;42.662;23.352;2023-08-20T04:53:51;11.02;;;8.38;;
41077;SDS011;26823;42.662;23.352;2023-08-20T04:56:16;10.48;;;8.18;;
41077;SDS011;26823;42.662;23.352;2023-08-20T04:58:41;9.95;;;8.07;;
41077;SDS011;26823;42.662;23.352;2023-08-20T05:01:07;8.65;;;7.65;;
41077;SDS011;26823;42.662;23.352;2023-08-20T05:03:33;9.82;;;7.75;;
41077;SDS011;26823;42.662;23.352;2023-08-20T05:05:59;11.00;;;7.32;;
41077;SDS011;26823;42.662;23.352;2023-08-20T05:08:24;8.90;;;8.00;;
41077;SDS011;26823;42.662;23.352;2023-08-20T05:10:50;9.65;;;8.30;;
41077;SDS011;26823;42.662;23.352;2023-08-20T05:13:16;8.23;;;7.43;;
41077;SDS011;26823;42.662;23.352;2023-08-20T05:15:41;10.00;;;8.68;;
41077;SDS011;26823;42.662;23.352;2023-08-20T05:18:07;10.18;;;7.90;;
41077;SDS011;26823;42.662;23.352;2023-08-20T05:20:32;11.52;;;8.27;;
41077;SDS011;26823;42.662;23.352;2023-08-20T05:22:58;9.82;;;7.72;;
41077;SDS011;26823;42.662;23.352;2023-08-20T05:25:23;10.63;;;7.70;;
41077;SDS011;26823;42.662;23.352;2023-08-20T05:27:48;11.02;;;8.18;;
41077;SDS011;26823;42.662;23.352;2023-08-20T05:30:14;10.48;;;7.82;;
41077;SDS011;26823;42.662;23.352;2023-08-20T05:32:39;12.38;;;9.73;;
41077;SDS011;26823;42.662;23.352;2023-08-20T05:35:05;12.60;;;8.60;;
41077;SDS011;26823;42.662;23.352;2023-08-20T05:37:30;14.05;;;9.07;;
41077;SDS011;26823;42.662;23.352;2023-08-20T05:39:56;11.25;;;9.75;;
41077;SDS011;26823;42.662;23.352;2023-08-20T05:42:21;14.43;;;9.90;;
41077;SDS011;26823;42.662;23.352;2023-08-20T05:44:47;14.57;;;9.55;;
41077;SDS011;26823;42.662;23.352;2023-08-20T05:47:12;15.93;;;9.75;;
41077;SDS011;26823;42.662;23.352;2023-08-20T05:49:37;17.42;;;10.50;;
41077;SDS011;26823;42.662;23.352;2023-08-20T05:52:03;12.20;;;9.35;;
41077;SDS011;26823;42.662;23.352;2023-08-20T05:54:28;11.70;;;9.52;;
41077;SDS011;26823;42.662;23.352;2023-08-20T05:56:54;10.40;;;9.15;;
41077;SDS011;26823;42.662;23.352;2023-08-20T05:59:19;12.75;;;8.85;;
41077;SDS011;26823;42.662;23.352;2023-08-20T06:01:45;10.10;;;8.82;;
41077;SDS011;26823;42.662;23.352;2023-08-20T06:04:10;9.07;;;8.07;;
41077;SDS011;26823;42.662;23.352;2023-08-20T06:06:35;11.60;;;8.70;;
41077;SDS011;26823;42.662;23.352;2023-08-20T06:09:01;10.68;;;8.50;;
41077;SDS011;26823;42.662;23.352;2023-08-20T06:11:26;9.85;;;8.07;;
41077;SDS011;26823;42.662;23.352;2023-08-20T06:13:51;14.43;;;8.65;;
41077;SDS011;26823;42.662;23.352;2023-08-20T06:16:17;11.30;;;8.02;;
41077;SDS011;26823;42.662;23.352;2023-08-20T06:18:42;10.68;;;8.10;;
41077;SDS011;26823;42.662;23.352;2023-08-20T06:21:08;12.10;;;8.55;;
41077;SDS011;26823;42.662;23.352;2023-08-20T06:23:33;10.18;;;7.93;;
41077;SDS011;26823;42.662;23.352;2023-08-20T06:25:59;10.93;;;8.18;;
41077;SDS011;26823;42.662;23.352;2023-08-20T06:28:24;13.07;;;7.70;;
41077;SDS011;26823;42.662;23.352;2023-08-20T06:30:49;11.00;;;8.43;;
41077;SDS011;26823;42.662;23.352;2023-08-20T06:33:15;11.35;;;9.00;;
41077;SDS011;26823;42.662;23.352;2023-08-20T06:35:40;10.23;;;8.52;;
41077;SDS011;26823;42.662;23.352;2023-08-20T06:38:06;9.82;;;8.20;;
41077;SDS011;26823;42.662;23.352;2023-08-20T06:40:32;9.18;;;8.10;;
41077;SDS011;26823;42.662;23.352;2023-08-20T06:42:57;9.77;;;8.40;;
41077;SDS011;26823;42.662;23.352;2023-08-20T06:45:23;15.63;;;8.93;;
41077;SDS011;26823;42.662;23.352;2023-08-20T06:47:48;10.40;;;8.07;;
41077;SDS011;26823;42.662;23.352;2023-08-20T06:50:13;12.02;;;7.90;;
41077;SDS011;26823;42.662;23.352;2023-08-20T06:52:39;12.77;;;8.45;;
41077;SDS011;26823;42.662;23.352;2023-08-20T06:55:04;10.75;;;7.20;;
41077;SDS011;26823;42.662;23.352;2023-08-20T06:57:30;9.77;;;7.45;;
41077;SDS011;26823;42.662;23.352;2023-08-20T06:59:56;9.55;;;7.18;;
41077;SDS011;26823;42.662;23.352;2023-08-20T07:02:21;13.70;;;7.70;;
41077;SDS011;26823;42.662;23.352;2023-08-20T07:04:47;8.82;;;7.45;;
41077;SDS011;26823;42.662;23.352;2023-08-20T07:07:12;10.07;;;7.05;;
41077;SDS011;26823;42.662;23.352;2023-08-20T07:09:39;7.53;;;6.60;;
41077;SDS011;26823;42.662;23.352;2023-08-20T07:12:05;10.90;;;6.90;;
41077;SDS011;26823;42.662;23.352;2023-08-20T07:14:37;9.18;;;7.03;;
41077;SDS011;26823;42.662;23.352;2023-08-20T07:17:03;8.48;;;6.38;;
41077;SDS011;26823;42.662;23.352;2023-08-20T07:19:29;11.07;;;6.75;;
41077;SDS011;26823;42.662;23.352;2023-08-20T07:21:54;9.98;;;6.60;;
41077;SDS011;26823;42.662;23.352;2023-08-20T07:24:20;7.43;;;5.63;;
41077;SDS011;26823;42.662;23.352;2023-08-20T07:26:50;6.88;;;6.18;;
41077;SDS011;26823;42.662;23.352;2023-08-20T07:29:16;6.65;;;5.85;;
41077;SDS011;26823;42.662;23.352;2023-08-20T07:31:41;11.40;;;5.75;;
41077;SDS011;26823;42.662;23.352;2023-08-20T07:34:06;7.20;;;5.90;;
41077;SDS011;26823;42.662;23.352;2023-08-20T07:36:32;9.77;;;5.88;;
41077;SDS011;26823;42.662;23.352;2023-08-20T07:38:59;7.88;;;6.25;;
41077;SDS011;26823;42.662;23.352;2023-08-20T07:41:25;7.43;;;5.80;;
41077;SDS011;26823;42.662;23.352;2023-08-20T07:43:50;13.30;;;6.20;;
41077;SDS011;26823;42.662;23.352;2023-08-20T07:46:16;14.25;;;6.15;;
41077;SDS011;26823;42.662;23.352;2023-08-20T07:48:41;7.63;;;5.90;;
41077;SDS011;26823;42.662;23.352;2023-08-20T07:51:08;7.00;;;5.75;;
41077;SDS011;26823;42.662;23.352;2023-08-20T07:53:33;6.30;;;5.70;;
41077;SDS011;26823;42.662;23.352;2023-08-20T07:55:59;6.53;;;5.13;;
41077;SDS011;26823;42.662;23.352;2023-08-20T07:58:26;7.50;;;5.07;;
41077;SDS011;26823;42.662;23.352;2023-08-20T08:00:51;7.00;;;5.38;;
41077;SDS011;26823;42.662;23.352;2023-08-20T08:03:17;6.90;;;5.70;;
41077;SDS011;26823;42.662;23.352;2023-08-20T08:05:46;5.90;;;5.32;;
41077;SDS011;26823;42.662;23.352;2023-08-20T08:08:15;7.40;;;5.45;;
41077;SDS011;26823;42.662;23.352;2023-08-20T08:10:41;7.25;;;5.38;;
41077;SDS011;26823;42.662;23.352;2023-08-20T08:13:09;6.68;;;5.40;;
41077;SDS011;26823;42.662;23.352;2023-08-20T08:15:35;8.32;;;5.50;;
41077;SDS011;26823;42.662;23.352;2023-08-20T08:18:00;9.85;;;5.45;;
41077;SDS011;26823;42.662;23.352;2023-08-20T08:20:25;5.88;;;4.97;;
41077;SDS011;26823;42.662;23.352;2023-08-20T08:22:51;8.48;;;5.07;;
41077;SDS011;26823;42.662;23.352;2023-08-20T08:25:16;7.65;;;4.35;;
41077;SDS011;26823;42.662;23.352;2023-08-20T08:27:41;8.02;;;5.25;;
41077;SDS011;26823;42.662;23.352;2023-08-20T08:30:07;7.18;;;5.03;;
41077;SDS011;26823;42.662;23.352;2023-08-20T08:32:32;5.65;;;4.35;;
41077;SDS011;26823;42.662;23.352;2023-08-20T08:34:58;5.72;;;4.85;;
41077;SDS011;26823;42.662;23.352;2023-08-20T08:37:23;5.57;;;4.55;;
41077;SDS011;26823;42.662;23.352;2023-08-20T08:39:48;4.82;;;4.00;;
41077;SDS011;26823;42.662;23.352;2023-08-20T08:42:14;5.25;;;4.13;;
41077;SDS011;26823;42.662;23.352;2023-08-20T08:44:39;6.05;;;4.28;;
41077;SDS011;26823;42.662;23.352;2023-08-20T08:47:05;6.45;;;3.80;;
41077;SDS011;26823;42.662;23.352;2023-08-20T08:49:34;7.43;;;4.18;;
41077;SDS011;26823;42.662;23.352;2023-08-20T08:51:59;5.82;;;3.72;;
41077;SDS011;26823;42.662;23.352;2023-08-20T08:54:26;5.97;;;3.55;;
41077;SDS011;26823;42.662;23.352;2023-08-20T08:56:52;6.38;;;3.70;;
41077;SDS011;26823;42.662;23.352;2023-08-20T08:59:18;4.65;;;3.70;;
41077;SDS011;26823;42.662;23.352;2023-08-20T09:01:44;5.07;;;3.92;;
41077;SDS011;26823;42.662;23.352;2023-08-20T09:04:09;5.25;;;3.97;;
41077;SDS011;26823;42.662;23.352;2023-08-20T09:06:44;4.90;;;3.83;;
41077;SDS011;26823;42.662;23.352;2023-08-20T09:09:10;4.30;;;3.90;;
41077;SDS011;26823;42.662;23.352;2023-08-20T09:11:35;5.15;;;4.28;;
41077;SDS011;26823;42.662;23.352;2023-08-20T09:14:01;4.30;;;3.65;;
41077;SDS011;26823;42.662;23.352;2023-08-20T09:16:26;4.22;;;3.85;;
41077;SDS011;26823;42.662;23.352;2023-08-20T09:18:57;4.22;;;3.33;;
41077;SDS011;26823;42.662;23.352;2023-08-20T09:21:26;5.97;;;3.70;;
41077;SDS011;26823;42.662;23.352;2023-08-20T09:23:56;4.53;;;3.20;;
41077;SDS011;26823;42.662;23.352;2023-08-20T09:26:22;5.20;;;3.80;;
41077;SDS011;26823;42.662;23.352;2023-08-20T09:28:48;5.45;;;3.60;;
41077;SDS011;26823;42.662;23.352;2023-08-20T09:31:14;4.30;;;3.90;;
41077;SDS011;26823;42.662;23.352;2023-08-20T09:33:52;6.68;;;4.18;;
41077;SDS011;26823;42.662;23.352;2023-08-20T09:36:19;4.43;;;3.00;;
41077;SDS011;26823;42.662;23.352;2023-08-20T09:38:54;7.05;;;3.92;;
41077;SDS011;26823;42.662;23.352;2023-08-20T09:41:19;3.63;;;3.33;;
41077;SDS011;26823;42.662;23.352;2023-08-20T09:43:47;4.13;;;3.40;;
41077;SDS011;26823;42.662;23.352;2023-08-20T09:46:15;7.50;;;3.90;;
41077;SDS011;26823;42.662;23.352;2023-08-20T09:48:44;8.50;;;3.47;;
41077;SDS011;26823;42.662;23.352;2023-08-20T09:51:13;5.80;;;3.60;;
41077;SDS011;26823;42.662;23.352;2023-08-20T09:53:51;7.00;;;3.33;;
41077;SDS011;26823;42.662;23.352;2023-08-20T09:56:22;3.90;;;3.50;;
41077;SDS011;26823;42.662;23.352;2023-08-20T09:58:53;3.30;;;2.75;;
41077;SDS011;26823;42.662;23.352;2023-08-20T10:01:20;3.22;;;2.78;;
41077;SDS011;26823;42.662;23.352;2023-08-20T10:03:46;2.92;;;2.63;;
41077;SDS011;26823;42.662;23.352;2023-08-20T10:06:11;4.97;;;2.95;;
41077;SDS011;26823;42.662;23.352;2023-08-20T10:08:37;3.58;;;3.22;;
41077;SDS011;26823;42.662;23.352;2023-08-20T10:11:03;3.83;;;2.78;;
41077;SDS011;26823;42.662;23.352;2023-08-20T10:13:28;4.20;;;3.38;;
41077;SDS011;26823;42.662;23.352;2023-08-20T10:15:55;4.07;;;3.60;;
41077;SDS011;26823;42.662;23.352;2023-08-20T10:18:21;4.15;;;3.30;;
41077;SDS011;26823;42.662;23.352;2023-08-20T10:20:49;6.47;;;2.83;;
41077;SDS011;26823;42.662;23.352;2023-08-20T10:23:17;3.20;;;2.80;;
41077;SDS011;26823;42.662;23.352;2023-08-20T10:25:46;4.65;;;3.08;;
41077;SDS011;26823;42.662;23.352;2023-08-20T10:28:13;5.97;;;2.80;;
41077;SDS011;26823;42.662;23.352;2023-08-20T10:33:28;3.25;;;2.95;;
41077;SDS011;26823;42.662;23.352;2023-08-20T10:35:53;2.90;;;2.70;;
41077;SDS011;26823;42.662;23.352;2023-08-20T10:38:19;3.78;;;2.50;;
41077;SDS011;26823;42.662;23.352;2023-08-20T10:46:02;3.55;;;2.83;;
41077;SDS011;26823;42.662;23.352;2023-08-20T10:48:47;3.10;;;2.80;;
41077;SDS011;26823;42.662;23.352;2023-08-20T10:59:17;4.55;;;3.08;;
41077;SDS011;26823;42.662;23.352;2023-08-20T11:01:47;4.10;;;3.70;;
41077;SDS011;26823;42.662;23.352;2023-08-20T11:04:17;5.20;;;3.55;;
41077;SDS011;26823;42.662;23.352;2023-08-20T11:06:45;6.00;;;3.33;;
41077;SDS011;26823;42.662;23.352;2023-08-20T11:09:11;4.00;;;3.65;;
41077;SDS011;26823;42.662;23.352;2023-08-20T11:11:40;3.42;;;2.75;;
41077;SDS011;26823;42.662;23.352;2023-08-20T11:14:06;6.80;;;2.88;;
41077;SDS011;26823;42.662;23.352;2023-08-20T11:16:39;4.28;;;2.83;;
41077;SDS011;26823;42.662;23.352;2023-08-20T11:19:06;4.28;;;3.35;;
41077;SDS011;26823;42.662;23.352;2023-08-20T11:21:40;4.25;;;2.90;;
41077;SDS011;26823;42.662;23.352;2023-08-20T11:24:07;3.97;;;3.10;;
41077;SDS011;26823;42.662;23.352;2023-08-20T11:26:34;4.07;;;2.95;;
41077;SDS011;26823;42.662;23.352;2023-08-20T11:29:00;5.82;;;3.45;;
41077;SDS011;26823;42.662;23.352;2023-08-20T11:31:26;6.68;;;3.70;;
41077;SDS011;26823;42.662;23.352;2023-08-20T11:33:51;3.55;;;3.25;;
41077;SDS011;26823;42.662;23.352;2023-08-20T11:36:17;4.35;;;3.60;;
41077;SDS011;26823;42.662;23.352;2023-08-20T11:38:51;6.53;;;3.42;;
41077;SDS011;26823;42.662;23.352;2023-08-20T11:41:18;3.88;;;3.35;;
41077;SDS011;26823;42.662;23.352;2023-08-20T11:43:45;3.45;;;3.10;;
41077;SDS011;26823;42.662;23.352;2023-08-20T11:46:14;3.90;;;3.22;;
41077;SDS011;26823;42.662;23.352;2023-08-20T11:51:30;5.82;;;3.17;;
41077;SDS011;26823;42.662;23.352;2023-08-20T11:54:00;4.95;;;3.15;;
41077;SDS011;26823;42.662;23.352;2023-08-20T11:56:26;4.97;;;3.20;;
41077;SDS011;26823;42.662;23.352;2023-08-20T11:58:52;3.90;;;3.33;;
41077;SDS011;26823;42.662;23.352;2023-08-20T12:01:18;4.53;;;3.33;;
41077;SDS011;26823;42.662;23.352;2023-08-20T12:03:44;3.50;;;3.20;;
41077;SDS011;26823;42.662;23.352;2023-08-20T12:06:19;4.25;;;3.22;;
41077;SDS011;26823;42.662;23.352;2023-08-20T12:08:47;5.60;;;3.03;;
41077;SDS011;26823;42.662;23.352;2023-08-20T12:11:13;4.43;;;3.20;;
41077;SDS011;26823;42.662;23.352;2023-08-20T12:13:38;3.67;;;3.38;;
41077;SDS011;26823;42.662;23.352;2023-08-20T12:16:04;6.35;;;3.15;;
41077;SDS011;26823;42.662;23.352;2023-08-20T12:18:29;6.40;;;3.60;;
41077;SDS011;26823;42.662;23.352;2023-08-20T12:20:55;4.55;;;3.60;;
41077;SDS011;26823;42.662;23.352;2023-08-20T12:23:20;5.32;;;3.38;;
41077;SDS011;26823;42.662;23.352;2023-08-20T12:25:49;7.10;;;3.70;;
41077;SDS011;26823;42.662;23.352;2023-08-20T12:28:16;4.35;;;3.35;;
41077;SDS011;26823;42.662;23.352;2023-08-20T12:30:41;6.63;;;3.65;;
41077;SDS011;26823;42.662;23.352;2023-08-20T12:33:07;3.45;;;2.92;;
41077;SDS011;26823;42.662;23.352;2023-08-20T12:35:32;3.90;;;3.42;;
41077;SDS011;26823;42.662;23.352;2023-08-20T12:37:57;4.10;;;3.80;;
41077;SDS011;26823;42.662;23.352;2023-08-20T12:40:23;4.75;;;3.75;;
41077;SDS011;26823;42.662;23.352;2023-08-20T12:42:48;3.70;;;3.40;;
41077;SDS011;26823;42.662;23.352;2023-08-20T12:45:14;3.40;;;3.15;;
41077;SDS011;26823;42.662;23.352;2023-08-20T12:47:39;4.40;;;3.20;;
41077;SDS011;26823;42.662;23.352;2023-08-20T12:50:05;3.03;;;2.83;;
41077;SDS011;26823;42.662;23.352;2023-08-20T12:52:32;5.45;;;3.47;;
41077;SDS011;26823;42.662;23.352;2023-08-20T12:54:58;3.97;;;3.35;;
41077;SDS011;26823;42.662;23.352;2023-08-20T12:57:23;3.92;;;3.15;;
41077;SDS011;26823;42.662;23.352;2023-08-20T12:59:48;6.78;;;3.25;;
41077;SDS011;26823;42.662;23.352;2023-08-20T13:02:14;4.63;;;3.30;;
41077;SDS011;26823;42.662;23.352;2023-08-20T13:04:40;7.38;;;3.42;;
41077;SDS011;26823;42.662;23.352;2023-08-20T13:07:06;3.55;;;3.25;;
41077;SDS011;26823;42.662;23.352;2023-08-20T13:09:32;3.60;;;3.30;;
41077;SDS011;26823;42.662;23.352;2023-08-20T13:11:58;5.20;;;3.53;;
41077;SDS011;26823;42.662;23.352;2023-08-20T13:14:26;5.25;;;3.80;;
41077;SDS011;26823;42.662;23.352;2023-08-20T13:16:52;5.78;;;3.03;;
41077;SDS011;26823;42.662;23.352;2023-08-20T13:19:17;4.35;;;3.28;;
41077;SDS011;26823;42.662;23.352;2023-08-20T13:21:43;3.22;;;2.90;;
41077;SDS011;26823;42.662;23.352;2023-08-20T13:24:08;4.05;;;3.60;;
41077;SDS011;26823;42.662;23.352;2023-08-20T13:26:34;4.97;;;3.15;;
41077;SDS011;26823;42.662;23.352;2023-08-20T13:28:59;3.78;;;3.47;;
41077;SDS011;26823;42.662;23.352;2023-08-20T13:31:24;3.20;;;2.90;;
41077;SDS011;26823;42.662;23.352;2023-08-20T13:33:50;5.63;;;3.40;;
41077;SDS011;26823;42.662;23.352;2023-08-20T13:36:16;5.95;;;3.40;;
41077;SDS011;26823;42.662;23.352;2023-08-20T13:38:42;3.80;;;3.50;;
41077;SDS011;26823;42.662;23.352;2023-08-20T13:41:07;3.63;;;3.33;;
41077;SDS011;26823;42.662;23.352;2023-08-20T13:43:34;4.18;;;3.22;;
41077;SDS011;26823;42.662;23.352;2023-08-20T13:45:59;3.42;;;3.05;;
41077;SDS011;26823;42.662;23.352;2023-08-20T13:48:25;3.75;;;2.88;;
41077;SDS011;26823;42.662;23.352;2023-08-20T13:50:50;6.70;;;3.65;;
41077;SDS011;26823;42.662;23.352;2023-08-20T13:53:15;5.85;;;3.30;;
41077;SDS011;26823;42.662;23.352;2023-08-20T13:55:41;8.38;;;3.30;;
41077;SDS011;26823;42.662;23.352;2023-08-20T13:58:06;3.13;;;2.80;;
41077;SDS011;26823;42.662;23.352;2023-08-20T14:00:32;5.05;;;3.05;;
41077;SDS011;26823;42.662;23.352;2023-08-20T14:02:57;3.60;;;3.30;;
41077;SDS011;26823;42.662;23.352;2023-08-20T14:05:23;3.65;;;3.08;;
41077;SDS011;26823;42.662;23.352;2023-08-20T14:07:49;3.60;;;3.30;;
41077;SDS011;26823;42.662;23.352;2023-08-20T14:10:14;6.28;;;3.42;;
41077;SDS011;26823;42.662;23.352;2023-08-20T14:12:40;3.40;;;3.10;;
41077;SDS011;26823;42.662;23.352;2023-08-20T14:15:06;3.85;;;3.00;;
41077;SDS011;26823;42.662;23.352;2023-08-20T14:17:33;5.22;;;3.20;;
41077;SDS011;26823;42.662;23.352;2023-08-20T14:19:58;3.33;;;3.05;;
41077;SDS011;26823;42.662;23.352;2023-08-20T14:22:23;6.53;;;3.33;;
41077;SDS011;26823;42.662;23.352;2023-08-20T14:24:49;5.38;;;3.28;;
41077;SDS011;26823;42.662;23.352;2023-08-20T14:27:14;4.28;;;3.05;;
41077;SDS011;26823;42.662;23.352;2023-08-20T14:29:40;3.22;;;2.92;;
41077;SDS011;26823;42.662;23.352;2023-08-20T14:32:06;3.38;;;3.08;;
41077;SDS011;26823;42.662;23.352;2023-08-20T14:34:32;8.68;;;3.55;;
41077;SDS011;26823;42.662;23.352;2023-08-20T14:36:57;3.40;;;3.10;;
41077;SDS011;26823;42.662;23.352;2023-08-20T14:39:23;4.13;;;3.30;;
41077;SDS011;26823;42.662;23.352;2023-08-20T14:41:48;3.97;;;3.10;;
41077;SDS011;26823;42.662;23.352;2023-08-20T14:44:14;5.57;;;3.55;;
41077;SDS011;26823;42.662;23.352;2023-08-20T14:46:48;3.85;;;3.20;;
41077;SDS011;26823;42.662;23.352;2023-08-20T14:49:13;3.58;;;3.30;;
41077;SDS011;26823;42.662;23.352;2023-08-20T14:51:38;11.48;;;3.13;;
41077;SDS011;26823;42.662;23.352;2023-08-20T14:54:04;3.65;;;3.05;;